createdAt,value
2023-06-09T00:01:00.402Z,8.7
2023-06-09T00:04:00.480Z,8.7
2023-06-09T00:07:00.417Z,8.7
2023-06-09T00:10:00.411Z,8.9
2023-06-09T00:13:00.424Z,9
2023-06-09T00:16:00.441Z,9.1
2023-06-09T00:19:00.438Z,9.3
2023-06-09T00:22:00.428Z,9.8
2023-06-09T00:25:00.461Z,9.4
2023-06-09T00:28:00.443Z,9.3
2023-06-09T00:31:00.463Z,10
2023-06-09T00:34:00.464Z,10
2023-06-09T00:37:00.469Z,9.9
2023-06-09T00:40:00.479Z,10.4
2023-06-09T00:43:00.499Z,10
2023-06-09T00:46:00.475Z,9.6
2023-06-09T00:49:00.476Z,10.2
2023-06-09T00:52:00.480Z,9.9
2023-06-09T00:55:00.482Z,10.2
2023-06-09T00:58:00.492Z,10.4
2023-06-09T01:01:00.509Z,10.2
2023-06-09T01:04:00.664Z,10.2
2023-06-09T01:07:00.512Z,10.3
2023-06-09T01:10:00.542Z,10.3
2023-06-09T01:13:00.564Z,10.4
2023-06-09T01:16:00.548Z,10.4
2023-06-09T01:19:00.518Z,10.1
2023-06-09T01:22:00.519Z,10
2023-06-09T01:25:00.539Z,9.7
2023-06-09T01:28:00.543Z,9.7
2023-06-09T01:31:00.540Z,9.5
2023-06-09T01:34:00.542Z,9.6
2023-06-09T01:37:00.541Z,9.3
2023-06-09T01:40:00.554Z,8.8
2023-06-09T01:43:00.541Z,9.1
2023-06-09T01:46:00.573Z,8.9
2023-06-09T01:49:00.558Z,8.7
2023-06-09T01:52:00.557Z,9
2023-06-09T01:55:00.577Z,8.7
2023-06-09T01:58:00.568Z,8.6
2023-06-09T02:01:00.570Z,8.7
2023-06-09T02:04:00.605Z,8.6
2023-06-09T02:07:00.571Z,8.3
2023-06-09T02:10:00.574Z,8.4
2023-06-09T02:13:00.579Z,8.5
2023-06-09T02:16:00.611Z,8.5
2023-06-09T02:19:00.586Z,8.2
2023-06-09T02:22:00.599Z,8.5
2023-06-09T02:25:00.589Z,8.6
2023-06-09T02:28:00.581Z,8.9
2023-06-09T02:31:00.605Z,8.3
2023-06-09T02:34:00.599Z,8.4
2023-06-09T02:37:00.608Z,8.5
2023-06-09T02:40:00.628Z,8.3
2023-06-09T02:43:00.649Z,8.1
2023-06-09T02:46:00.676Z,8.3
2023-06-09T02:49:00.673Z,8.4
2023-06-09T02:52:00.671Z,8.3
2023-06-09T02:55:00.688Z,8
2023-06-09T02:58:00.709Z,8.4
2023-06-09T03:01:00.711Z,8.4
2023-06-09T03:04:00.757Z,8.7
2023-06-09T03:07:00.723Z,8.5
2023-06-09T03:10:00.726Z,8.5
2023-06-09T03:13:00.740Z,8.3
2023-06-09T03:16:00.738Z,8.6
2023-06-09T03:19:00.753Z,8.2
2023-06-09T03:22:00.749Z,8.2
2023-06-09T03:25:00.758Z,8.1
2023-06-09T03:28:00.762Z,7.9
2023-06-09T03:31:00.770Z,8
2023-06-09T03:34:00.764Z,7.9
2023-06-09T03:37:00.807Z,7.5
2023-06-09T03:40:00.769Z,7.8
2023-06-09T03:43:00.785Z,7.4
2023-06-09T03:46:00.785Z,7.3
2023-06-09T03:49:00.802Z,7.6
2023-06-09T03:52:00.788Z,7.7
2023-06-09T03:55:00.827Z,7.6
2023-06-09T03:58:00.828Z,7.3
2023-06-09T04:01:00.814Z,7.5
2023-06-09T04:04:00.820Z,7.2
2023-06-09T04:07:00.834Z,6.9
2023-06-09T04:10:00.854Z,6.7
2023-06-09T04:13:00.858Z,7.1
2023-06-09T04:16:00.839Z,7.2
2023-06-09T04:19:00.848Z,7.4
2023-06-09T04:22:00.861Z,6.9
2023-06-09T04:25:00.873Z,6.6
2023-06-09T04:28:00.875Z,6.8
2023-06-09T04:31:00.876Z,6.8
2023-06-09T04:34:00.890Z,7
2023-06-09T04:37:00.884Z,6.8
2023-06-09T04:40:00.900Z,6.7
2023-06-09T04:43:01.042Z,6.8
2023-06-09T04:46:00.952Z,6.9
2023-06-09T04:49:00.903Z,6.8
2023-06-09T04:52:00.909Z,7.1
2023-06-09T04:55:00.907Z,6.9
2023-06-09T04:58:00.960Z,6.5
2023-06-09T05:01:00.922Z,6.7
2023-06-09T05:04:00.929Z,6.4
2023-06-09T05:07:00.940Z,7
2023-06-09T05:10:00.941Z,6.9
2023-06-09T05:13:00.939Z,6.4
2023-06-09T05:16:00.967Z,6.6
2023-06-09T05:19:00.947Z,6.7
2023-06-09T05:22:00.959Z,6.6
2023-06-09T05:25:00.952Z,6.8
2023-06-09T05:28:00.940Z,6.8
2023-06-09T05:31:00.951Z,7.1
2023-06-09T05:34:00.948Z,6.5
2023-06-09T05:37:00.968Z,7
2023-06-09T05:40:00.977Z,6.6
2023-06-09T05:43:01.234Z,7
2023-06-09T05:46:01.010Z,6.6
2023-06-09T05:49:00.976Z,6.6
2023-06-09T05:52:00.990Z,7
2023-06-09T05:55:00.981Z,6.2
2023-06-09T05:58:00.991Z,6.7
2023-06-09T06:01:01.002Z,6.9
2023-06-09T06:04:01.025Z,6.2
2023-06-09T06:07:01.009Z,6.5
2023-06-09T06:10:01.010Z,6.7
2023-06-09T06:13:01.016Z,6.1
2023-06-09T06:16:01.042Z,6.3
2023-06-09T06:19:01.032Z,6.6
2023-06-09T06:22:01.041Z,6.1
2023-06-09T06:25:01.038Z,6
2023-06-09T06:28:01.128Z,6.1
2023-06-09T06:31:01.068Z,5.8
2023-06-09T06:34:01.046Z,6.2
2023-06-09T06:37:01.062Z,6.2
2023-06-09T06:40:01.059Z,6.2
2023-06-09T06:43:01.051Z,5.8
2023-06-09T06:46:01.076Z,6.1
2023-06-09T06:49:01.068Z,5.7
2023-06-09T06:52:01.089Z,5.9
2023-06-09T06:55:01.096Z,6.4
2023-06-09T06:58:01.081Z,6
2023-06-09T07:01:01.113Z,6.3
2023-06-09T07:04:01.103Z,6
2023-06-09T07:07:01.113Z,5.9
2023-06-09T07:10:01.103Z,6
2023-06-09T07:13:01.117Z,6
2023-06-09T07:16:01.124Z,5.6
2023-06-09T07:19:01.119Z,6
2023-06-09T07:22:01.140Z,5.6
2023-06-09T07:25:01.134Z,5.8
2023-06-09T07:28:01.135Z,5.7
2023-06-09T07:31:01.137Z,6.3
2023-06-09T07:34:01.157Z,5.9
2023-06-09T07:37:01.150Z,6.9
2023-06-09T07:40:13.728Z,6
2023-06-09T07:43:01.163Z,6
2023-06-09T07:46:01.168Z,5.7
2023-06-09T07:49:01.157Z,6.2
2023-06-09T07:52:06.678Z,6.1
2023-06-09T07:55:01.232Z,6
2023-06-09T07:58:01.181Z,5.9
2023-06-09T08:01:01.186Z,5.7
2023-06-09T08:04:01.344Z,6.2
2023-06-09T08:07:01.193Z,6.1
2023-06-09T08:10:01.204Z,6.1
2023-06-09T08:13:01.198Z,5.7
2023-06-09T08:16:01.313Z,5.9
2023-06-09T08:19:01.212Z,5.7
2023-06-09T08:22:01.227Z,5.7
2023-06-09T08:25:01.222Z,5.9
2023-06-09T08:28:01.223Z,5.8
2023-06-09T08:31:01.217Z,5.5
2023-06-09T08:34:01.230Z,5.5
2023-06-09T08:37:01.246Z,5.6
2023-06-09T08:40:01.278Z,5.7
2023-06-09T08:43:01.249Z,5.8
2023-06-09T08:46:01.291Z,5.5
2023-06-09T08:49:01.255Z,5.5
2023-06-09T08:52:01.265Z,5.2
2023-06-09T08:55:01.275Z,5.5
2023-06-09T08:58:01.274Z,5.2
2023-06-09T09:01:01.308Z,5.6
2023-06-09T09:04:03.268Z,5.5
2023-06-09T09:07:01.294Z,5.7
2023-06-09T09:10:01.301Z,5.5
2023-06-09T09:13:01.285Z,5.5
2023-06-09T09:16:01.341Z,5.9
2023-06-09T09:19:01.300Z,5.5
2023-06-09T09:22:01.313Z,5.7
2023-06-09T09:25:01.346Z,6.2
2023-06-09T09:28:01.310Z,5.5
2023-06-09T09:31:01.322Z,6
2023-06-09T09:34:01.330Z,6.2
2023-06-09T09:37:01.339Z,6
2023-06-09T09:40:01.326Z,5.1
2023-06-09T09:43:01.343Z,5.3
2023-06-09T09:46:01.346Z,5.4
2023-06-09T09:49:01.351Z,5.2
2023-06-09T09:52:01.364Z,5.4
2023-06-09T09:55:01.364Z,5.3
2023-06-09T09:58:01.359Z,5.2
2023-06-09T10:01:01.424Z,5.2
2023-06-09T10:04:01.430Z,4.7
2023-06-09T10:07:01.392Z,4.9
2023-06-09T10:10:01.386Z,5.1
2023-06-09T10:13:01.392Z,4.5
2023-06-09T10:16:01.405Z,4.5
2023-06-09T10:19:01.393Z,4.4
2023-06-09T10:22:01.399Z,4.5
2023-06-09T10:25:01.415Z,4.1
2023-06-09T10:28:01.410Z,4.5
2023-06-09T10:31:01.416Z,4.4
2023-06-09T10:34:01.428Z,4.6
2023-06-09T10:37:01.428Z,4.9
2023-06-09T10:40:01.427Z,5
2023-06-09T10:43:01.430Z,4.7
2023-06-09T10:46:01.445Z,4.3
2023-06-09T10:49:01.437Z,4.4
2023-06-09T10:52:01.447Z,4.9
2023-06-09T10:55:01.450Z,4.5
2023-06-09T10:58:01.452Z,4.5
2023-06-09T11:01:01.465Z,4.3
2023-06-09T11:04:01.487Z,4.8
2023-06-09T11:07:01.472Z,4.8
2023-06-09T11:10:01.474Z,4.9
2023-06-09T11:13:01.469Z,4.9
2023-06-09T11:16:01.486Z,5.1
2023-06-09T11:19:01.563Z,4.9
2023-06-09T11:22:01.496Z,5.1
2023-06-09T11:25:01.496Z,5.1
2023-06-09T11:28:01.503Z,5.2
2023-06-09T11:31:01.530Z,4.8
2023-06-09T11:34:01.507Z,4.7
2023-06-09T11:37:01.516Z,4.5
2023-06-09T11:40:01.559Z,4.3
2023-06-09T11:43:01.522Z,4.3
2023-06-09T11:46:01.534Z,4.2
2023-06-09T11:49:01.523Z,4.4
2023-06-09T11:52:01.538Z,4.2
2023-06-09T11:55:01.546Z,4.5
2023-06-09T11:58:01.542Z,4.3
2023-06-09T12:01:01.547Z,4.2
2023-06-09T12:04:01.553Z,4.4
2023-06-09T12:07:01.584Z,4.3
2023-06-09T12:10:01.571Z,4.2
2023-06-09T12:13:01.586Z,4
2023-06-09T12:16:01.571Z,4.2
2023-06-09T12:19:01.577Z,4.1
2023-06-09T12:22:01.748Z,4.3
2023-06-09T12:25:01.578Z,4.3
2023-06-09T12:28:01.587Z,4.3
2023-06-09T12:31:01.593Z,4.6
2023-06-09T12:34:01.601Z,4.6
2023-06-09T12:37:01.624Z,4.2
2023-06-09T12:40:01.620Z,4.6
2023-06-09T12:43:01.629Z,4.6
2023-06-09T12:46:01.621Z,4.4
2023-06-09T12:49:01.622Z,4.2
2023-06-09T12:52:01.663Z,4.5
2023-06-09T12:55:10.020Z,4.5
2023-06-09T12:58:01.641Z,4.3
2023-06-09T13:01:01.697Z,4.5
2023-06-09T13:04:01.845Z,4.2
2023-06-09T13:07:01.669Z,4
2023-06-09T13:10:01.657Z,4.1
2023-06-09T13:13:01.656Z,3.8
2023-06-09T13:16:01.684Z,4
2023-06-09T13:19:01.683Z,3.8
2023-06-09T13:22:01.708Z,4
2023-06-09T13:25:01.703Z,4.1
2023-06-09T13:28:01.713Z,4.1
2023-06-09T13:31:01.772Z,3.7
2023-06-09T13:34:01.765Z,4
2023-06-09T13:37:01.774Z,4
2023-06-09T13:40:01.765Z,3.9
2023-06-09T13:43:01.765Z,3.9
2023-06-09T13:46:01.771Z,3.6
2023-06-09T13:49:01.885Z,3.7
2023-06-09T13:52:04.201Z,3.6
2023-06-09T13:55:01.772Z,3.7
2023-06-09T13:58:01.771Z,3.7
2023-06-09T14:01:01.769Z,3.5
2023-06-09T14:04:01.913Z,3.4
2023-06-09T14:07:01.785Z,3.5
2023-06-09T14:10:01.791Z,3.5
2023-06-09T14:13:01.779Z,3.5
2023-06-09T14:16:01.835Z,3.4
2023-06-09T14:19:01.786Z,3.1
2023-06-09T14:22:01.790Z,3
2023-06-09T14:25:01.784Z,3.2
2023-06-09T14:28:01.792Z,2.9
2023-06-09T14:31:01.784Z,3.1
2023-06-09T14:34:01.781Z,3
2023-06-09T14:37:01.798Z,2.8
2023-06-09T14:40:01.784Z,2.9
2023-06-09T14:43:01.789Z,2.8
2023-06-09T14:46:01.847Z,2.8
2023-06-09T14:49:01.803Z,2.8
2023-06-09T14:52:01.819Z,2.7
2023-06-09T14:55:01.792Z,2.6
2023-06-09T14:58:01.801Z,2.9
2023-06-09T15:01:01.835Z,2.8
2023-06-09T15:04:01.814Z,2.5
2023-06-09T15:07:01.830Z,2.7
2023-06-09T15:10:01.801Z,2.9
2023-06-09T15:13:01.798Z,2.8
2023-06-09T15:16:01.882Z,3
2023-06-09T15:19:01.810Z,3.1
2023-06-09T15:22:12.347Z,2.8
2023-06-09T15:25:01.818Z,3
2023-06-09T15:28:01.830Z,3.1
2023-06-09T15:31:01.841Z,3.1
2023-06-09T15:34:03.814Z,2.9
2023-06-09T15:37:01.827Z,2.9
2023-06-09T15:40:04.407Z,2.8
2023-06-09T15:43:01.839Z,3
2023-06-09T15:46:03.482Z,2.7
2023-06-09T15:49:01.837Z,2.9
2023-06-09T15:52:01.842Z,2.5
2023-06-09T15:55:01.839Z,2.7
2023-06-09T15:58:01.845Z,2.8
2023-06-09T16:01:01.854Z,2.8
2023-06-09T16:04:01.882Z,2.9
2023-06-09T16:07:01.865Z,2.9
2023-06-09T16:10:01.858Z,2.9
2023-06-09T16:13:01.856Z,2.7
2023-06-09T16:16:01.854Z,3
2023-06-09T16:19:01.876Z,2.9
2023-06-09T16:22:01.890Z,2.7
2023-06-09T16:25:01.868Z,2.7
2023-06-09T16:28:01.872Z,2.8
2023-06-09T16:31:01.875Z,2.7
2023-06-09T16:34:01.900Z,3.1
2023-06-09T16:37:01.888Z,2.7
2023-06-09T16:40:01.909Z,2.6
2023-06-09T16:43:01.893Z,2.7
2023-06-09T16:46:01.915Z,2.6
2023-06-09T16:49:01.895Z,2.6
2023-06-09T16:52:01.900Z,2.6
2023-06-09T16:55:01.900Z,2.7
2023-06-09T16:58:01.898Z,2.9
2023-06-09T17:01:01.926Z,2.6
2023-06-09T17:04:01.996Z,2.7
2023-06-09T17:07:01.929Z,2.4
2023-06-09T17:10:01.922Z,2.7
2023-06-09T17:13:01.922Z,2.7
2023-06-09T17:16:01.981Z,2.8
2023-06-09T17:19:01.951Z,2.6
2023-06-09T17:22:01.950Z,2.6
2023-06-09T17:25:01.947Z,2.8
2023-06-09T17:28:01.949Z,2.8
2023-06-09T17:31:01.954Z,2.9
2023-06-09T17:34:01.961Z,2.9
2023-06-09T17:37:01.991Z,3.1
2023-06-09T17:40:01.991Z,3
2023-06-09T17:43:01.983Z,3
2023-06-09T17:46:02.028Z,3
2023-06-09T17:49:01.979Z,3.1
2023-06-09T17:52:02.017Z,3.3
2023-06-09T17:55:02.014Z,3
2023-06-09T17:58:02.014Z,3
2023-06-09T18:01:02.034Z,3.4
2023-06-09T18:04:02.074Z,3.1
2023-06-09T18:07:02.043Z,3.4
2023-06-09T18:10:02.026Z,3.5
2023-06-09T18:13:02.046Z,3.3
2023-06-09T18:16:02.064Z,3.1
2023-06-09T18:19:02.052Z,3.3
2023-06-09T18:22:02.085Z,3.1
2023-06-09T18:25:02.064Z,3.2
2023-06-09T18:28:02.601Z,3.4
2023-06-09T18:31:02.279Z,3.3
2023-06-09T18:34:02.075Z,3.2
2023-06-09T18:37:02.121Z,3.3
2023-06-09T18:40:02.094Z,3.2
2023-06-09T18:43:02.095Z,3.5
2023-06-09T18:46:02.114Z,3.6
2023-06-09T18:49:02.205Z,3.7
2023-06-09T18:52:02.126Z,3.6
2023-06-09T18:55:02.129Z,3.4
2023-06-09T18:58:02.146Z,3.3
2023-06-09T19:01:02.187Z,3.4
2023-06-09T19:04:02.205Z,3.4
2023-06-09T19:07:02.185Z,3.2
2023-06-09T19:10:02.167Z,3.1
2023-06-09T19:13:02.183Z,3.2
2023-06-09T19:16:02.184Z,3.7
2023-06-09T19:19:02.197Z,3.3
2023-06-09T19:22:02.226Z,3.6
2023-06-09T19:25:02.215Z,3.6
2023-06-09T19:28:02.230Z,3.6
2023-06-09T19:31:02.262Z,3.9
2023-06-09T19:34:02.236Z,3.7
2023-06-09T19:37:02.258Z,3.9
2023-06-09T19:40:02.258Z,4.2
2023-06-09T19:43:02.280Z,4.1
2023-06-09T19:46:02.305Z,4.1
2023-06-09T19:49:02.277Z,4.2
2023-06-09T19:52:02.370Z,4.8
2023-06-09T19:55:02.294Z,3.8
2023-06-09T19:58:02.291Z,3.8
2023-06-09T20:01:02.333Z,3.5
2023-06-09T20:04:02.345Z,3.9
2023-06-09T20:07:02.383Z,3.8
2023-06-09T20:10:02.405Z,3.7
2023-06-09T20:13:02.348Z,3.7
2023-06-09T20:16:02.413Z,3.7
2023-06-09T20:19:02.353Z,3.5
2023-06-09T20:22:02.371Z,3.6
2023-06-09T20:25:02.363Z,3.2
2023-06-09T20:28:02.389Z,3.2
2023-06-09T20:31:02.368Z,3.2
2023-06-09T20:34:02.366Z,3
2023-06-09T20:37:02.383Z,3.2
2023-06-09T20:40:02.401Z,3.1
2023-06-09T20:43:02.376Z,3.2
2023-06-09T20:46:02.486Z,3.1
2023-06-09T20:49:02.403Z,2.9
2023-06-09T20:52:02.388Z,3
2023-06-09T20:55:02.441Z,3
2023-06-09T20:58:02.930Z,2.8
2023-06-09T21:01:02.436Z,3.1
2023-06-09T21:04:02.476Z,2.6
2023-06-09T21:07:02.428Z,2.4
2023-06-09T21:10:02.426Z,2.6
2023-06-09T21:13:02.413Z,2.6
2023-06-09T21:16:02.437Z,2.7
2023-06-09T21:19:02.456Z,2.7
2023-06-09T21:22:02.435Z,2.5
2023-06-09T21:25:02.439Z,3
2023-06-09T21:28:05.483Z,2.5
2023-06-09T21:31:02.475Z,2.8
2023-06-09T21:34:02.457Z,2.5
2023-06-09T21:37:02.459Z,2.6
2023-06-09T21:40:02.490Z,2.9
2023-06-09T21:43:02.498Z,2.6
2023-06-09T21:46:02.497Z,2.7
2023-06-09T21:49:02.486Z,2.8
2023-06-09T21:52:02.495Z,2.7
2023-06-09T21:55:02.526Z,2.9
2023-06-09T21:58:02.499Z,2.8
2023-06-09T22:01:02.533Z,2.7
2023-06-09T22:04:02.529Z,2.7
2023-06-09T22:07:02.506Z,2.9
2023-06-09T22:10:02.512Z,2.8
2023-06-09T22:13:02.516Z,2.8
2023-06-09T22:16:02.510Z,3
2023-06-09T22:19:02.530Z,3.1
2023-06-09T22:22:02.527Z,3
2023-06-09T22:25:02.543Z,3
2023-06-09T22:28:02.530Z,2.8
2023-06-09T22:31:02.546Z,3
2023-06-09T22:34:02.683Z,3.1
2023-06-09T22:37:02.557Z,3
2023-06-09T22:40:02.539Z,3.2
2023-06-09T22:43:02.549Z,3.2
2023-06-09T22:46:02.614Z,3.1
2023-06-09T22:49:02.559Z,3.2
2023-06-09T22:52:02.563Z,3.1
2023-06-09T22:55:02.594Z,3.3
2023-06-09T22:58:02.570Z,3.2
2023-06-09T23:01:02.583Z,3.5
2023-06-09T23:04:02.589Z,3.2
2023-06-09T23:07:02.595Z,3.7
2023-06-09T23:10:02.606Z,3.6
2023-06-09T23:13:02.628Z,3.9
2023-06-09T23:16:02.655Z,3.8
2023-06-09T23:19:02.614Z,3.9
2023-06-09T23:22:02.621Z,3.8
2023-06-09T23:25:02.629Z,4
2023-06-09T23:28:02.631Z,3.8
2023-06-09T23:31:02.633Z,3.8
2023-06-09T23:34:02.635Z,4.3
2023-06-09T23:37:02.644Z,4
2023-06-09T23:40:02.682Z,4.3
2023-06-09T23:43:02.644Z,4.2
2023-06-09T23:46:02.788Z,4.4
2023-06-09T23:49:02.657Z,4.4
2023-06-09T23:52:02.660Z,4.3
2023-06-09T23:55:02.683Z,4.5
2023-06-09T23:58:02.703Z,4.4
